sensor_id;sensor_type;location;lat;lon;timestamp;P1;durP1;ratioP1;P2;durP2;ratioP2
4325;SDS011;58429;49.826;10.880;2023-02-25T00:00:34;14.9;;;10.6;;
4325;SDS011;58429;49.826;10.880;2023-02-25T00:01:34;14.7;;;10.2;;
4325;SDS011;58429;49.826;10.880;2023-02-25T00:02:34;14.7;;;10.2;;
4325;SDS011;58429;49.826;10.880;2023-02-25T00:03:34;14.7;;;10.2;;
4325;SDS011;58429;49.826;10.880;2023-02-25T00:04:34;14.8;;;10.6;;
4325;SDS011;58429;49.826;10.880;2023-02-25T00:05:36;14.8;;;10.6;;
4325;SDS011;58429;49.826;10.880;2023-02-25T00:06:34;14.8;;;10.6;;
4325;SDS011;58429;49.826;10.880;2023-02-25T00:07:34;14.8;;;9.7;;
4325;SDS011;58429;49.826;10.880;2023-02-25T00:08:34;14.8;;;9.7;;
4325;SDS011;58429;49.826;10.880;2023-02-25T00:09:34;14.8;;;9.7;;
4325;SDS011;58429;49.826;10.880;2023-02-25T00:10:34;15.4;;;10.3;;
4325;SDS011;58429;49.826;10.880;2023-02-25T00:11:34;15.4;;;10.3;;
4325;SDS011;58429;49.826;10.880;2023-02-25T00:12:34;15.4;;;10.3;;
4325;SDS011;58429;49.826;10.880;2023-02-25T00:13:34;16.4;;;10.8;;
4325;SDS011;58429;49.826;10.880;2023-02-25T00:14:34;16.4;;;10.8;;
4325;SDS011;58429;49.826;10.880;2023-02-25T00:15:34;16.4;;;10.8;;
4325;SDS011;58429;49.826;10.880;2023-02-25T00:16:34;14.9;;;9.9;;
4325;SDS011;58429;49.826;10.880;2023-02-25T00:17:34;14.9;;;9.9;;
4325;SDS011;58429;49.826;10.880;2023-02-25T00:18:34;14.9;;;9.9;;
4325;SDS011;58429;49.826;10.880;2023-02-25T00:19:34;16.1;;;11.2;;
4325;SDS011;58429;49.826;10.880;2023-02-25T00:20:34;16.1;;;11.2;;
4325;SDS011;58429;49.826;10.880;2023-02-25T00:21:34;16.1;;;11.2;;
4325;SDS011;58429;49.826;10.880;2023-02-25T00:22:34;17.4;;;11.5;;
4325;SDS011;58429;49.826;10.880;2023-02-25T00:23:34;17.4;;;11.5;;
4325;SDS011;58429;49.826;10.880;2023-02-25T00:24:34;17.4;;;11.5;;
4325;SDS011;58429;49.826;10.880;2023-02-25T00:25:34;17.5;;;10.7;;
4325;SDS011;58429;49.826;10.880;2023-02-25T00:26:34;17.5;;;10.7;;
4325;SDS011;58429;49.826;10.880;2023-02-25T00:27:34;17.5;;;10.7;;
4325;SDS011;58429;49.826;10.880;2023-02-25T00:28:34;17.1;;;11.2;;
4325;SDS011;58429;49.826;10.880;2023-02-25T00:29:34;17.1;;;11.2;;
4325;SDS011;58429;49.826;10.880;2023-02-25T00:30:34;17.1;;;11.2;;
4325;SDS011;58429;49.826;10.880;2023-02-25T00:31:34;16;;;10.3;;
4325;SDS011;58429;49.826;10.880;2023-02-25T00:32:34;16;;;10.3;;
4325;SDS011;58429;49.826;10.880;2023-02-25T00:33:34;16;;;10.3;;
4325;SDS011;58429;49.826;10.880;2023-02-25T00:34:34;18.6;;;10.1;;
4325;SDS011;58429;49.826;10.880;2023-02-25T00:35:35;18.6;;;10.1;;
4325;SDS011;58429;49.826;10.880;2023-02-25T00:36:34;18.6;;;10.1;;
4325;SDS011;58429;49.826;10.880;2023-02-25T00:37:34;17.3;;;10.9;;
4325;SDS011;58429;49.826;10.880;2023-02-25T00:38:34;17.3;;;10.9;;
4325;SDS011;58429;49.826;10.880;2023-02-25T00:39:34;17.3;;;10.9;;
4325;SDS011;58429;49.826;10.880;2023-02-25T00:40:36;15.9;;;10.2;;
4325;SDS011;58429;49.826;10.880;2023-02-25T00:41:34;15.9;;;10.2;;
4325;SDS011;58429;49.826;10.880;2023-02-25T00:42:34;15.9;;;10.2;;
4325;SDS011;58429;49.826;10.880;2023-02-25T00:43:34;15.9;;;10.2;;
4325;SDS011;58429;49.826;10.880;2023-02-25T00:44:34;14.6;;;9.8;;
4325;SDS011;58429;49.826;10.880;2023-02-25T00:45:34;14.6;;;9.8;;
4325;SDS011;58429;49.826;10.880;2023-02-25T00:46:34;14.6;;;9.8;;
4325;SDS011;58429;49.826;10.880;2023-02-25T00:47:34;14.6;;;10.1;;
4325;SDS011;58429;49.826;10.880;2023-02-25T00:48:34;14.6;;;10.1;;
4325;SDS011;58429;49.826;10.880;2023-02-25T00:49:34;14.6;;;10.1;;
4325;SDS011;58429;49.826;10.880;2023-02-25T00:50:34;15.2;;;9.7;;
4325;SDS011;58429;49.826;10.880;2023-02-25T00:51:34;15.2;;;9.7;;
4325;SDS011;58429;49.826;10.880;2023-02-25T00:52:34;15.2;;;9.7;;
4325;SDS011;58429;49.826;10.880;2023-02-25T00:53:34;16;;;10.6;;
4325;SDS011;58429;49.826;10.880;2023-02-25T00:54:34;16;;;10.6;;
4325;SDS011;58429;49.826;10.880;2023-02-25T00:55:34;16;;;10.6;;
4325;SDS011;58429;49.826;10.880;2023-02-25T00:56:34;14.7;;;9.6;;
4325;SDS011;58429;49.826;10.880;2023-02-25T00:57:34;14.7;;;9.6;;
4325;SDS011;58429;49.826;10.880;2023-02-25T00:58:34;14.7;;;9.6;;
4325;SDS011;58429;49.826;10.880;2023-02-25T00:59:34;15.5;;;9.7;;
4325;SDS011;58429;49.826;10.880;2023-02-25T01:00:34;15.5;;;9.7;;
4325;SDS011;58429;49.826;10.880;2023-02-25T01:01:34;15.5;;;9.7;;
4325;SDS011;58429;49.826;10.880;2023-02-25T01:02:34;14.5;;;9.5;;
4325;SDS011;58429;49.826;10.880;2023-02-25T01:03:34;14.5;;;9.5;;
4325;SDS011;58429;49.826;10.880;2023-02-25T01:04:34;14.5;;;9.5;;
4325;SDS011;58429;49.826;10.880;2023-02-25T01:05:38;14.3;;;9.7;;
4325;SDS011;58429;49.826;10.880;2023-02-25T01:06:34;14.3;;;9.7;;
4325;SDS011;58429;49.826;10.880;2023-02-25T01:07:34;14.3;;;9.7;;
4325;SDS011;58429;49.826;10.880;2023-02-25T01:08:34;14.2;;;8.6;;
4325;SDS011;58429;49.826;10.880;2023-02-25T01:09:34;14.2;;;8.6;;
4325;SDS011;58429;49.826;10.880;2023-02-25T01:10:34;14.2;;;8.6;;
4325;SDS011;58429;49.826;10.880;2023-02-25T01:11:34;16.3;;;9;;
4325;SDS011;58429;49.826;10.880;2023-02-25T01:12:34;16.3;;;9;;
4325;SDS011;58429;49.826;10.880;2023-02-25T01:13:34;16.3;;;9;;
4325;SDS011;58429;49.826;10.880;2023-02-25T01:14:34;15;;;8.6;;
4325;SDS011;58429;49.826;10.880;2023-02-25T01:15:34;15;;;8.6;;
4325;SDS011;58429;49.826;10.880;2023-02-25T01:16:34;15;;;8.6;;
4325;SDS011;58429;49.826;10.880;2023-02-25T01:17:34;13.9;;;8.8;;
4325;SDS011;58429;49.826;10.880;2023-02-25T01:18:34;13.9;;;8.8;;
4325;SDS011;58429;49.826;10.880;2023-02-25T01:19:34;13.9;;;8.8;;
4325;SDS011;58429;49.826;10.880;2023-02-25T01:20:36;12.2;;;8.5;;
4325;SDS011;58429;49.826;10.880;2023-02-25T01:21:35;12.2;;;8.5;;
4325;SDS011;58429;49.826;10.880;2023-02-25T01:22:34;12.2;;;8.5;;
4325;SDS011;58429;49.826;10.880;2023-02-25T01:23:34;19.9;;;9;;
4325;SDS011;58429;49.826;10.880;2023-02-25T01:24:34;19.9;;;9;;
4325;SDS011;58429;49.826;10.880;2023-02-25T01:25:37;19.9;;;9;;
4325;SDS011;58429;49.826;10.880;2023-02-25T01:26:34;13.9;;;9;;
4325;SDS011;58429;49.826;10.880;2023-02-25T01:27:34;13.9;;;9;;
4325;SDS011;58429;49.826;10.880;2023-02-25T01:28:34;13.9;;;9;;
4325;SDS011;58429;49.826;10.880;2023-02-25T01:29:35;14.2;;;9.2;;
4325;SDS011;58429;49.826;10.880;2023-02-25T01:30:34;14.2;;;9.2;;
4325;SDS011;58429;49.826;10.880;2023-02-25T01:31:34;14.2;;;9.2;;
4325;SDS011;58429;49.826;10.880;2023-02-25T01:32:34;15.7;;;9.6;;
4325;SDS011;58429;49.826;10.880;2023-02-25T01:33:34;15.7;;;9.6;;
4325;SDS011;58429;49.826;10.880;2023-02-25T01:34:34;15.7;;;9.6;;
4325;SDS011;58429;49.826;10.880;2023-02-25T01:35:34;13.6;;;10;;
4325;SDS011;58429;49.826;10.880;2023-02-25T01:36:34;13.6;;;10;;
4325;SDS011;58429;49.826;10.880;2023-02-25T01:37:34;13.6;;;10;;
4325;SDS011;58429;49.826;10.880;2023-02-25T01:38:34;14.2;;;9;;
4325;SDS011;58429;49.826;10.880;2023-02-25T01:39:34;14.2;;;9;;
4325;SDS011;58429;49.826;10.880;2023-02-25T01:40:34;14.2;;;9;;
4325;SDS011;58429;49.826;10.880;2023-02-25T01:41:34;14.6;;;9.9;;
4325;SDS011;58429;49.826;10.880;2023-02-25T01:42:34;14.6;;;9.9;;
4325;SDS011;58429;49.826;10.880;2023-02-25T01:43:34;14.6;;;9.9;;
4325;SDS011;58429;49.826;10.880;2023-02-25T01:44:35;13.6;;;9;;
4325;SDS011;58429;49.826;10.880;2023-02-25T01:45:34;13.6;;;9;;
4325;SDS011;58429;49.826;10.880;2023-02-25T01:46:34;13.6;;;9;;
4325;SDS011;58429;49.826;10.880;2023-02-25T01:47:34;15;;;9;;
4325;SDS011;58429;49.826;10.880;2023-02-25T01:48:34;15;;;9;;
4325;SDS011;58429;49.826;10.880;2023-02-25T01:49:35;15;;;9;;
4325;SDS011;58429;49.826;10.880;2023-02-25T01:50:36;13.5;;;8.4;;
4325;SDS011;58429;49.826;10.880;2023-02-25T01:51:34;13.5;;;8.4;;
4325;SDS011;58429;49.826;10.880;2023-02-25T01:52:34;13.5;;;8.4;;
4325;SDS011;58429;49.826;10.880;2023-02-25T01:53:36;14.3;;;8;;
4325;SDS011;58429;49.826;10.880;2023-02-25T01:54:34;14.3;;;8;;
4325;SDS011;58429;49.826;10.880;2023-02-25T01:55:34;14.3;;;8;;
4325;SDS011;58429;49.826;10.880;2023-02-25T01:56:34;12.8;;;8.6;;
4325;SDS011;58429;49.826;10.880;2023-02-25T01:57:34;12.8;;;8.6;;
4325;SDS011;58429;49.826;10.880;2023-02-25T01:58:34;12.8;;;8.6;;
4325;SDS011;58429;49.826;10.880;2023-02-25T01:59:34;14;;;8.4;;
4325;SDS011;58429;49.826;10.880;2023-02-25T02:00:34;14;;;8.4;;
4325;SDS011;58429;49.826;10.880;2023-02-25T02:01:35;14;;;8.4;;
4325;SDS011;58429;49.826;10.880;2023-02-25T02:02:34;15;;;8.1;;
4325;SDS011;58429;49.826;10.880;2023-02-25T02:03:34;15;;;8.1;;
4325;SDS011;58429;49.826;10.880;2023-02-25T02:04:34;15;;;8.1;;
4325;SDS011;58429;49.826;10.880;2023-02-25T02:05:36;13.6;;;8.1;;
4325;SDS011;58429;49.826;10.880;2023-02-25T02:06:35;13.6;;;8.1;;
4325;SDS011;58429;49.826;10.880;2023-02-25T02:07:34;13.6;;;8.1;;
4325;SDS011;58429;49.826;10.880;2023-02-25T02:08:34;15.4;;;8.7;;
4325;SDS011;58429;49.826;10.880;2023-02-25T02:09:34;15.4;;;8.7;;
4325;SDS011;58429;49.826;10.880;2023-02-25T02:10:34;15.4;;;8.7;;
4325;SDS011;58429;49.826;10.880;2023-02-25T02:11:34;11.4;;;7.5;;
4325;SDS011;58429;49.826;10.880;2023-02-25T02:12:35;11.4;;;7.5;;
4325;SDS011;58429;49.826;10.880;2023-02-25T02:13:35;11.4;;;7.5;;
4325;SDS011;58429;49.826;10.880;2023-02-25T02:14:35;11.2;;;7;;
4325;SDS011;58429;49.826;10.880;2023-02-25T02:15:35;11.2;;;7;;
4325;SDS011;58429;49.826;10.880;2023-02-25T02:16:38;11.2;;;7;;
4325;SDS011;58429;49.826;10.880;2023-02-25T02:17:35;12.3;;;7.5;;
4325;SDS011;58429;49.826;10.880;2023-02-25T02:18:34;12.3;;;7.5;;
4325;SDS011;58429;49.826;10.880;2023-02-25T02:19:40;12.3;;;7.5;;
4325;SDS011;58429;49.826;10.880;2023-02-25T02:20:38;13.7;;;8.2;;
4325;SDS011;58429;49.826;10.880;2023-02-25T02:21:53;13.7;;;8.2;;
4325;SDS011;58429;49.826;10.880;2023-02-25T02:22:35;13.7;;;8.2;;
4325;SDS011;58429;49.826;10.880;2023-02-25T02:23:41;11.2;;;8.6;;
4325;SDS011;58429;49.826;10.880;2023-02-25T02:24:40;11.2;;;8.6;;
4325;SDS011;58429;49.826;10.880;2023-02-25T02:26:13;11.2;;;8.6;;
4325;SDS011;58429;49.826;10.880;2023-02-25T02:26:39;10.8;;;8;;
4325;SDS011;58429;49.826;10.880;2023-02-25T02:27:38;10.8;;;8;;
4325;SDS011;58429;49.826;10.880;2023-02-25T02:28:41;10.8;;;8;;
4325;SDS011;58429;49.826;10.880;2023-02-25T02:29:41;10.8;;;8;;
4325;SDS011;58429;49.826;10.880;2023-02-25T02:30:37;11.3;;;7;;
4325;SDS011;58429;49.826;10.880;2023-02-25T02:31:40;11.3;;;7;;
4325;SDS011;58429;49.826;10.880;2023-02-25T02:32:35;11.3;;;7;;
4325;SDS011;58429;49.826;10.880;2023-02-25T02:33:35;11;;;6.6;;
4325;SDS011;58429;49.826;10.880;2023-02-25T02:34:36;11;;;6.6;;
4325;SDS011;58429;49.826;10.880;2023-02-25T02:35:35;11;;;6.6;;
4325;SDS011;58429;49.826;10.880;2023-02-25T02:36:37;11.6;;;7;;
4325;SDS011;58429;49.826;10.880;2023-02-25T02:37:37;11.6;;;7;;
4325;SDS011;58429;49.826;10.880;2023-02-25T02:38:34;11.6;;;7;;
4325;SDS011;58429;49.826;10.880;2023-02-25T02:39:38;10.4;;;6.8;;
4325;SDS011;58429;49.826;10.880;2023-02-25T02:40:37;10.4;;;6.8;;
4325;SDS011;58429;49.826;10.880;2023-02-25T02:41:35;10.4;;;6.8;;
4325;SDS011;58429;49.826;10.880;2023-02-25T02:42:36;11;;;6.6;;
4325;SDS011;58429;49.826;10.880;2023-02-25T02:43:36;11;;;6.6;;
4325;SDS011;58429;49.826;10.880;2023-02-25T02:44:36;11;;;6.6;;
4325;SDS011;58429;49.826;10.880;2023-02-25T02:45:38;10;;;6.8;;
4325;SDS011;58429;49.826;10.880;2023-02-25T02:46:34;10;;;6.8;;
4325;SDS011;58429;49.826;10.880;2023-02-25T02:47:35;10;;;6.8;;
4325;SDS011;58429;49.826;10.880;2023-02-25T02:48:35;10.2;;;6.2;;
4325;SDS011;58429;49.826;10.880;2023-02-25T02:49:35;10.2;;;6.2;;
4325;SDS011;58429;49.826;10.880;2023-02-25T02:50:35;10.2;;;6.2;;
4325;SDS011;58429;49.826;10.880;2023-02-25T02:51:35;10.9;;;5.4;;
4325;SDS011;58429;49.826;10.880;2023-02-25T02:52:36;10.9;;;5.4;;
4325;SDS011;58429;49.826;10.880;2023-02-25T02:53:35;10.9;;;5.4;;
4325;SDS011;58429;49.826;10.880;2023-02-25T02:54:35;11.1;;;6.1;;
4325;SDS011;58429;49.826;10.880;2023-02-25T02:55:35;11.1;;;6.1;;
4325;SDS011;58429;49.826;10.880;2023-02-25T02:56:35;11.1;;;6.1;;
4325;SDS011;58429;49.826;10.880;2023-02-25T02:57:35;13.4;;;6.9;;
4325;SDS011;58429;49.826;10.880;2023-02-25T02:58:35;13.4;;;6.9;;
4325;SDS011;58429;49.826;10.880;2023-02-25T02:59:36;13.4;;;6.9;;
4325;SDS011;58429;49.826;10.880;2023-02-25T03:00:35;11.3;;;6.9;;
4325;SDS011;58429;49.826;10.880;2023-02-25T03:01:36;11.3;;;6.9;;
4325;SDS011;58429;49.826;10.880;2023-02-25T03:02:34;11.3;;;6.9;;
4325;SDS011;58429;49.826;10.880;2023-02-25T03:03:35;9.9;;;5.9;;
4325;SDS011;58429;49.826;10.880;2023-02-25T03:04:35;9.9;;;5.9;;
4325;SDS011;58429;49.826;10.880;2023-02-25T03:05:34;9.9;;;5.9;;
4325;SDS011;58429;49.826;10.880;2023-02-25T03:06:35;9.7;;;6.1;;
4325;SDS011;58429;49.826;10.880;2023-02-25T03:07:35;9.7;;;6.1;;
4325;SDS011;58429;49.826;10.880;2023-02-25T03:08:35;9.7;;;6.1;;
4325;SDS011;58429;49.826;10.880;2023-02-25T03:09:35;9.4;;;6.1;;
4325;SDS011;58429;49.826;10.880;2023-02-25T03:10:34;9.4;;;6.1;;
4325;SDS011;58429;49.826;10.880;2023-02-25T03:11:34;9.4;;;6.1;;
4325;SDS011;58429;49.826;10.880;2023-02-25T03:12:34;9.2;;;6.4;;
4325;SDS011;58429;49.826;10.880;2023-02-25T03:13:34;9.2;;;6.4;;
4325;SDS011;58429;49.826;10.880;2023-02-25T03:14:34;9.2;;;6.4;;
4325;SDS011;58429;49.826;10.880;2023-02-25T03:15:34;9.1;;;6.1;;
4325;SDS011;58429;49.826;10.880;2023-02-25T03:16:36;9.1;;;6.1;;
4325;SDS011;58429;49.826;10.880;2023-02-25T03:17:35;9.1;;;6.1;;
4325;SDS011;58429;49.826;10.880;2023-02-25T03:18:35;11.6;;;6.6;;
4325;SDS011;58429;49.826;10.880;2023-02-25T03:19:36;11.6;;;6.6;;
4325;SDS011;58429;49.826;10.880;2023-02-25T03:20:35;11.6;;;6.6;;
4325;SDS011;58429;49.826;10.880;2023-02-25T03:21:35;11.2;;;7.1;;
4325;SDS011;58429;49.826;10.880;2023-02-25T03:22:35;11.2;;;7.1;;
4325;SDS011;58429;49.826;10.880;2023-02-25T03:23:34;11.2;;;7.1;;
4325;SDS011;58429;49.826;10.880;2023-02-25T03:24:36;13.1;;;7;;
4325;SDS011;58429;49.826;10.880;2023-02-25T03:25:35;13.1;;;7;;
4325;SDS011;58429;49.826;10.880;2023-02-25T03:26:34;13.1;;;7;;
4325;SDS011;58429;49.826;10.880;2023-02-25T03:27:35;11.6;;;7.3;;
4325;SDS011;58429;49.826;10.880;2023-02-25T03:28:34;11.6;;;7.3;;
4325;SDS011;58429;49.826;10.880;2023-02-25T03:29:34;11.6;;;7.3;;
4325;SDS011;58429;49.826;10.880;2023-02-25T03:30:36;11;;;7.8;;
4325;SDS011;58429;49.826;10.880;2023-02-25T03:31:35;11;;;7.8;;
4325;SDS011;58429;49.826;10.880;2023-02-25T03:32:34;11;;;7.8;;
4325;SDS011;58429;49.826;10.880;2023-02-25T03:33:37;12.5;;;7;;
4325;SDS011;58429;49.826;10.880;2023-02-25T03:34:35;12.5;;;7;;
4325;SDS011;58429;49.826;10.880;2023-02-25T03:35:34;12.5;;;7;;
4325;SDS011;58429;49.826;10.880;2023-02-25T03:36:35;12.2;;;7;;
4325;SDS011;58429;49.826;10.880;2023-02-25T03:37:35;12.2;;;7;;
4325;SDS011;58429;49.826;10.880;2023-02-25T03:38:34;12.2;;;7;;
4325;SDS011;58429;49.826;10.880;2023-02-25T03:39:35;10;;;6.7;;
4325;SDS011;58429;49.826;10.880;2023-02-25T03:40:34;10;;;6.7;;
4325;SDS011;58429;49.826;10.880;2023-02-25T03:41:36;10;;;6.7;;
4325;SDS011;58429;49.826;10.880;2023-02-25T03:42:35;11.6;;;7.5;;
4325;SDS011;58429;49.826;10.880;2023-02-25T03:43:35;11.6;;;7.5;;
4325;SDS011;58429;49.826;10.880;2023-02-25T03:44:36;11.6;;;7.5;;
4325;SDS011;58429;49.826;10.880;2023-02-25T03:45:35;10.5;;;6.7;;
4325;SDS011;58429;49.826;10.880;2023-02-25T03:46:34;10.5;;;6.7;;
4325;SDS011;58429;49.826;10.880;2023-02-25T03:47:35;10.5;;;6.7;;
4325;SDS011;58429;49.826;10.880;2023-02-25T03:48:35;11.9;;;7;;
4325;SDS011;58429;49.826;10.880;2023-02-25T03:49:36;11.9;;;7;;
4325;SDS011;58429;49.826;10.880;2023-02-25T03:50:36;11.9;;;7;;
4325;SDS011;58429;49.826;10.880;2023-02-25T03:51:35;12.3;;;6.5;;
4325;SDS011;58429;49.826;10.880;2023-02-25T03:52:34;12.3;;;6.5;;
4325;SDS011;58429;49.826;10.880;2023-02-25T03:53:35;12.3;;;6.5;;
4325;SDS011;58429;49.826;10.880;2023-02-25T03:54:34;9.7;;;6.8;;
4325;SDS011;58429;49.826;10.880;2023-02-25T03:55:35;9.7;;;6.8;;
4325;SDS011;58429;49.826;10.880;2023-02-25T03:56:43;9.7;;;6.8;;
4325;SDS011;58429;49.826;10.880;2023-02-25T03:57:35;11.2;;;7.2;;
4325;SDS011;58429;49.826;10.880;2023-02-25T03:58:35;11.2;;;7.2;;
4325;SDS011;58429;49.826;10.880;2023-02-25T03:59:35;11.2;;;7.2;;
4325;SDS011;58429;49.826;10.880;2023-02-25T04:00:34;12.4;;;6.3;;
4325;SDS011;58429;49.826;10.880;2023-02-25T04:01:34;12.4;;;6.3;;
4325;SDS011;58429;49.826;10.880;2023-02-25T04:02:35;12.4;;;6.3;;
4325;SDS011;58429;49.826;10.880;2023-02-25T04:03:34;11.8;;;6.1;;
4325;SDS011;58429;49.826;10.880;2023-02-25T04:04:34;11.8;;;6.1;;
4325;SDS011;58429;49.826;10.880;2023-02-25T04:05:35;11.8;;;6.1;;
4325;SDS011;58429;49.826;10.880;2023-02-25T04:06:34;9.1;;;6.1;;
4325;SDS011;58429;49.826;10.880;2023-02-25T04:07:35;9.1;;;6.1;;
4325;SDS011;58429;49.826;10.880;2023-02-25T04:08:35;9.1;;;6.1;;
4325;SDS011;58429;49.826;10.880;2023-02-25T04:09:35;10.2;;;6.3;;
4325;SDS011;58429;49.826;10.880;2023-02-25T04:10:35;10.2;;;6.3;;
4325;SDS011;58429;49.826;10.880;2023-02-25T04:11:35;10.2;;;6.3;;
4325;SDS011;58429;49.826;10.880;2023-02-25T04:12:35;10;;;6.5;;
4325;SDS011;58429;49.826;10.880;2023-02-25T04:13:34;10;;;6.5;;
4325;SDS011;58429;49.826;10.880;2023-02-25T04:14:35;10;;;6.5;;
4325;SDS011;58429;49.826;10.880;2023-02-25T04:15:35;10;;;6.5;;
4325;SDS011;58429;49.826;10.880;2023-02-25T04:16:34;10.4;;;6;;
4325;SDS011;58429;49.826;10.880;2023-02-25T04:17:35;10.4;;;6;;
4325;SDS011;58429;49.826;10.880;2023-02-25T04:18:35;10.4;;;6;;
4325;SDS011;58429;49.826;10.880;2023-02-25T04:19:35;10.2;;;6.1;;
4325;SDS011;58429;49.826;10.880;2023-02-25T04:20:35;10.2;;;6.1;;
4325;SDS011;58429;49.826;10.880;2023-02-25T04:21:35;10.2;;;6.1;;
4325;SDS011;58429;49.826;10.880;2023-02-25T04:22:35;10;;;5.8;;
4325;SDS011;58429;49.826;10.880;2023-02-25T04:23:35;10;;;5.8;;
4325;SDS011;58429;49.826;10.880;2023-02-25T04:24:35;10;;;5.8;;
4325;SDS011;58429;49.826;10.880;2023-02-25T04:25:35;11.6;;;6.1;;
4325;SDS011;58429;49.826;10.880;2023-02-25T04:26:35;11.6;;;6.1;;
4325;SDS011;58429;49.826;10.880;2023-02-25T04:27:35;11.6;;;6.1;;
4325;SDS011;58429;49.826;10.880;2023-02-25T04:28:35;13.3;;;6.8;;
4325;SDS011;58429;49.826;10.880;2023-02-25T04:29:35;13.3;;;6.8;;
4325;SDS011;58429;49.826;10.880;2023-02-25T04:30:35;13.3;;;6.8;;
4325;SDS011;58429;49.826;10.880;2023-02-25T04:31:35;11.5;;;6.5;;
4325;SDS011;58429;49.826;10.880;2023-02-25T04:32:35;11.5;;;6.5;;
4325;SDS011;58429;49.826;10.880;2023-02-25T04:33:35;11.5;;;6.5;;
4325;SDS011;58429;49.826;10.880;2023-02-25T04:34:35;11.3;;;6.9;;
4325;SDS011;58429;49.826;10.880;2023-02-25T04:35:35;11.3;;;6.9;;
4325;SDS011;58429;49.826;10.880;2023-02-25T04:36:35;11.3;;;6.9;;
4325;SDS011;58429;49.826;10.880;2023-02-25T04:37:35;11.3;;;5.9;;
4325;SDS011;58429;49.826;10.880;2023-02-25T04:38:35;11.3;;;5.9;;
4325;SDS011;58429;49.826;10.880;2023-02-25T04:39:35;11.3;;;5.9;;
4325;SDS011;58429;49.826;10.880;2023-02-25T04:40:35;12;;;6.2;;
4325;SDS011;58429;49.826;10.880;2023-02-25T04:41:35;12;;;6.2;;
4325;SDS011;58429;49.826;10.880;2023-02-25T04:42:35;12;;;6.2;;
4325;SDS011;58429;49.826;10.880;2023-02-25T04:43:35;16.3;;;6.9;;
4325;SDS011;58429;49.826;10.880;2023-02-25T04:44:35;16.3;;;6.9;;
4325;SDS011;58429;49.826;10.880;2023-02-25T04:45:35;16.3;;;6.9;;
4325;SDS011;58429;49.826;10.880;2023-02-25T04:46:35;11.1;;;5.8;;
4325;SDS011;58429;49.826;10.880;2023-02-25T04:47:35;11.1;;;5.8;;
4325;SDS011;58429;49.826;10.880;2023-02-25T04:48:35;11.1;;;5.8;;
4325;SDS011;58429;49.826;10.880;2023-02-25T04:49:35;12.4;;;6.2;;
4325;SDS011;58429;49.826;10.880;2023-02-25T04:50:35;12.4;;;6.2;;
4325;SDS011;58429;49.826;10.880;2023-02-25T04:51:36;12.4;;;6.2;;
4325;SDS011;58429;49.826;10.880;2023-02-25T04:52:35;10.5;;;6.1;;
4325;SDS011;58429;49.826;10.880;2023-02-25T04:53:35;10.5;;;6.1;;
4325;SDS011;58429;49.826;10.880;2023-02-25T04:54:35;10.5;;;6.1;;
4325;SDS011;58429;49.826;10.880;2023-02-25T04:55:35;11.6;;;6.7;;
4325;SDS011;58429;49.826;10.880;2023-02-25T04:56:35;11.6;;;6.7;;
4325;SDS011;58429;49.826;10.880;2023-02-25T04:57:35;11.6;;;6.7;;
4325;SDS011;58429;49.826;10.880;2023-02-25T04:58:35;11.3;;;6.4;;
4325;SDS011;58429;49.826;10.880;2023-02-25T04:59:35;11.3;;;6.4;;
4325;SDS011;58429;49.826;10.880;2023-02-25T05:00:35;11.3;;;6.4;;
4325;SDS011;58429;49.826;10.880;2023-02-25T05:01:35;10.6;;;5.6;;
4325;SDS011;58429;49.826;10.880;2023-02-25T05:02:35;10.6;;;5.6;;
4325;SDS011;58429;49.826;10.880;2023-02-25T05:03:35;10.6;;;5.6;;
4325;SDS011;58429;49.826;10.880;2023-02-25T05:04:35;10.5;;;6.1;;
4325;SDS011;58429;49.826;10.880;2023-02-25T05:05:35;10.5;;;6.1;;
4325;SDS011;58429;49.826;10.880;2023-02-25T05:06:35;10.5;;;6.1;;
4325;SDS011;58429;49.826;10.880;2023-02-25T05:07:35;10.7;;;7.1;;
4325;SDS011;58429;49.826;10.880;2023-02-25T05:08:35;10.7;;;7.1;;
4325;SDS011;58429;49.826;10.880;2023-02-25T05:09:35;10.7;;;7.1;;
4325;SDS011;58429;49.826;10.880;2023-02-25T05:10:35;10.4;;;6.2;;
4325;SDS011;58429;49.826;10.880;2023-02-25T05:11:35;10.4;;;6.2;;
4325;SDS011;58429;49.826;10.880;2023-02-25T05:12:35;10.4;;;6.2;;
4325;SDS011;58429;49.826;10.880;2023-02-25T05:13:35;10.1;;;6.7;;
4325;SDS011;58429;49.826;10.880;2023-02-25T05:14:35;10.1;;;6.7;;
4325;SDS011;58429;49.826;10.880;2023-02-25T05:15:35;10.1;;;6.7;;
4325;SDS011;58429;49.826;10.880;2023-02-25T05:16:35;9.8;;;6.2;;
4325;SDS011;58429;49.826;10.880;2023-02-25T05:17:35;9.8;;;6.2;;
4325;SDS011;58429;49.826;10.880;2023-02-25T05:18:35;9.8;;;6.2;;
4325;SDS011;58429;49.826;10.880;2023-02-25T05:19:35;13.8;;;6.7;;
4325;SDS011;58429;49.826;10.880;2023-02-25T05:20:38;13.8;;;6.7;;
4325;SDS011;58429;49.826;10.880;2023-02-25T05:21:35;13.8;;;6.7;;
4325;SDS011;58429;49.826;10.880;2023-02-25T05:22:35;13.7;;;6.9;;
4325;SDS011;58429;49.826;10.880;2023-02-25T05:23:35;13.7;;;6.9;;
4325;SDS011;58429;49.826;10.880;2023-02-25T05:24:35;13.7;;;6.9;;
4325;SDS011;58429;49.826;10.880;2023-02-25T05:25:35;11.5;;;6.6;;
4325;SDS011;58429;49.826;10.880;2023-02-25T05:26:35;11.5;;;6.6;;
4325;SDS011;58429;49.826;10.880;2023-02-25T05:27:35;11.5;;;6.6;;
4325;SDS011;58429;49.826;10.880;2023-02-25T05:28:35;12.2;;;7.4;;
4325;SDS011;58429;49.826;10.880;2023-02-25T05:29:35;12.2;;;7.4;;
4325;SDS011;58429;49.826;10.880;2023-02-25T05:30:35;12.2;;;7.4;;
4325;SDS011;58429;49.826;10.880;2023-02-25T05:31:35;14;;;7.1;;
4325;SDS011;58429;49.826;10.880;2023-02-25T05:32:36;14;;;7.1;;
4325;SDS011;58429;49.826;10.880;2023-02-25T05:33:35;14;;;7.1;;
4325;SDS011;58429;49.826;10.880;2023-02-25T05:34:35;13.2;;;7.7;;
4325;SDS011;58429;49.826;10.880;2023-02-25T05:35:37;13.2;;;7.7;;
4325;SDS011;58429;49.826;10.880;2023-02-25T05:36:35;13.2;;;7.7;;
4325;SDS011;58429;49.826;10.880;2023-02-25T05:37:35;10.4;;;6.8;;
4325;SDS011;58429;49.826;10.880;2023-02-25T05:38:35;10.4;;;6.8;;
4325;SDS011;58429;49.826;10.880;2023-02-25T05:39:35;10.4;;;6.8;;
4325;SDS011;58429;49.826;10.880;2023-02-25T05:40:37;12.6;;;7.2;;
4325;SDS011;58429;49.826;10.880;2023-02-25T05:41:35;12.6;;;7.2;;
4325;SDS011;58429;49.826;10.880;2023-02-25T05:42:35;12.6;;;7.2;;
4325;SDS011;58429;49.826;10.880;2023-02-25T05:43:35;10.1;;;6.7;;
4325;SDS011;58429;49.826;10.880;2023-02-25T05:44:35;10.1;;;6.7;;
4325;SDS011;58429;49.826;10.880;2023-02-25T05:45:35;10.1;;;6.7;;
4325;SDS011;58429;49.826;10.880;2023-02-25T05:46:35;11.3;;;7;;
4325;SDS011;58429;49.826;10.880;2023-02-25T05:47:35;11.3;;;7;;
4325;SDS011;58429;49.826;10.880;2023-02-25T05:48:35;11.3;;;7;;
4325;SDS011;58429;49.826;10.880;2023-02-25T05:49:35;12.5;;;7.2;;
4325;SDS011;58429;49.826;10.880;2023-02-25T05:50:35;12.5;;;7.2;;
4325;SDS011;58429;49.826;10.880;2023-02-25T05:51:35;12.5;;;7.2;;
4325;SDS011;58429;49.826;10.880;2023-02-25T05:52:35;14.4;;;7.7;;
4325;SDS011;58429;49.826;10.880;2023-02-25T05:53:35;14.4;;;7.7;;
4325;SDS011;58429;49.826;10.880;2023-02-25T05:54:35;14.4;;;7.7;;
4325;SDS011;58429;49.826;10.880;2023-02-25T05:55:39;11.3;;;7.2;;
4325;SDS011;58429;49.826;10.880;2023-02-25T05:56:35;11.3;;;7.2;;
4325;SDS011;58429;49.826;10.880;2023-02-25T05:57:35;11.3;;;7.2;;
4325;SDS011;58429;49.826;10.880;2023-02-25T05:58:35;13.8;;;7.4;;
4325;SDS011;58429;49.826;10.880;2023-02-25T05:59:35;13.8;;;7.4;;
4325;SDS011;58429;49.826;10.880;2023-02-25T06:00:35;13.8;;;7.4;;
4325;SDS011;58429;49.826;10.880;2023-02-25T06:01:35;13.8;;;7.4;;
4325;SDS011;58429;49.826;10.880;2023-02-25T06:02:35;11.4;;;7.2;;
4325;SDS011;58429;49.826;10.880;2023-02-25T06:03:35;11.4;;;7.2;;
4325;SDS011;58429;49.826;10.880;2023-02-25T06:04:35;11.4;;;7.2;;
4325;SDS011;58429;49.826;10.880;2023-02-25T06:05:38;12.1;;;6.4;;
4325;SDS011;58429;49.826;10.880;2023-02-25T06:06:35;12.1;;;6.4;;
4325;SDS011;58429;49.826;10.880;2023-02-25T06:07:35;12.1;;;6.4;;
4325;SDS011;58429;49.826;10.880;2023-02-25T06:08:35;11.8;;;6.3;;
4325;SDS011;58429;49.826;10.880;2023-02-25T06:09:35;11.8;;;6.3;;